Time;durP1;ratioP1;P1;durP2;ratioP2;P2;SDS_P1;SDS_P2;PMS_P1;PMS_P2;Temp;Humidity;BMP_temperature;BMP_pressure;BME280_temperature;BME280_humidity;BME280_pressure;Samples;Min_cycle;Max_cycle;Signal;HPM_P1;HPM_P2
2021/06/29 00:00:52;;;;;;;113.87;60.50;;;21.40;85.80;;;;;;4984805;28;20214;-82
2021/06/29 00:03:17;;;;;;;112.47;58.03;;;21.40;85.70;;;;;;5002712;28;20441;-82
2021/06/29 00:05:46;;;;;;;110.50;62.17;;;21.40;85.50;;;;;;4985355;28;20254;-82
2021/06/29 00:08:12;;;;;;;111.67;60.40;;;21.40;85.70;;;;;;4985702;28;20179;-82
2021/06/29 00:10:38;;;;;;;126.43;64.00;;;21.40;85.70;;;;;;4984789;28;20457;-82
2021/06/29 00:13:05;;;;;;;111.43;58.00;;;21.50;85.80;;;;;;5002060;28;20321;-82
2021/06/29 00:15:31;;;;;;;115.07;62.07;;;21.60;85.40;;;;;;4984381;28;20458;-82
2021/06/29 00:17:57;;;;;;;114.03;59.07;;;21.70;84.60;;;;;;5002322;28;20415;-82
2021/06/29 00:20:24;;;;;;;109.90;58.73;;;21.80;83.00;;;;;;5001331;28;20505;-82
2021/06/29 00:22:49;;;;;;;108.30;58.60;;;21.80;82.30;;;;;;4984807;28;20624;-82
2021/06/29 00:25:17;;;;;;;111.70;56.50;;;21.70;82.40;;;;;;4984073;28;20917;-82
2021/06/29 00:27:43;;;;;;;108.03;59.20;;;21.70;82.80;;;;;;4983522;28;20182;-82
2021/06/29 00:30:10;;;;;;;105.97;60.17;;;21.60;82.60;;;;;;4983286;28;20183;-82
2021/06/29 00:32:36;;;;;;;93.87;53.43;;;21.70;82.30;;;;;;4983684;28;20439;-82
2021/06/29 00:35:02;;;;;;;117.43;58.93;;;21.50;82.40;;;;;;4982887;28;20493;-81
2021/06/29 00:37:28;;;;;;;108.80;59.40;;;21.50;83.20;;;;;;4982919;28;20465;-82
2021/06/29 00:39:53;;;;;;;113.80;58.23;;;21.40;83.50;;;;;;4999936;28;20418;-82
2021/06/29 00:42:19;;;;;;;114.37;57.37;;;21.30;84.50;;;;;;4984070;28;20287;-82
2021/06/29 00:44:46;;;;;;;114.77;56.97;;;21.20;84.80;;;;;;5004603;28;20179;-82
2021/06/29 00:47:12;;;;;;;130.77;65.30;;;21.10;84.80;;;;;;4987238;28;20270;-82
2021/06/29 00:49:39;;;;;;;114.97;62.07;;;21.10;85.40;;;;;;5010974;28;20190;-83
2021/06/29 00:52:09;;;;;;;121.05;63.42;;;21.10;85.70;;;;;;5006888;28;20461;-83
2021/06/29 00:54:36;;;;;;;122.57;62.70;;;21.20;85.90;;;;;;4999442;28;20183;-83
2021/06/29 00:57:02;;;;;;;119.50;62.03;;;21.10;86.00;;;;;;4998164;28;20202;-82
2021/06/29 00:59:28;;;;;;;111.63;57.43;;;21.20;86.00;;;;;;4997174;28;20202;-82
2021/06/29 01:01:53;;;;;;;112.33;54.47;;;21.10;86.00;;;;;;4992584;28;20450;-82
2021/06/29 01:04:19;;;;;;;103.13;56.00;;;21.10;86.00;;;;;;5000237;28;20562;-83
2021/06/29 01:06:45;;;;;;;116.23;58.00;;;21.10;86.00;;;;;;5000760;28;20205;-82
2021/06/29 01:09:10;;;;;;;112.83;56.03;;;21.10;86.10;;;;;;5000943;28;20233;-83
2021/06/29 01:11:36;;;;;;;123.03;57.30;;;21.00;85.70;;;;;;5002236;28;20222;-83
2021/06/29 01:14:13;;;;;;;119.77;58.57;;;21.00;85.80;;;;;;5000945;28;20187;-82
2021/06/29 01:16:39;;;;;;;110.00;58.30;;;20.90;86.00;;;;;;5017151;28;20820;-82
2021/06/29 01:19:05;;;;;;;132.70;60.58;;;21.00;85.70;;;;;;4999990;28;20183;-82
2021/06/29 01:21:43;;;;;;;124.53;59.47;;;21.00;85.80;;;;;;4999157;28;20202;-82
2021/06/29 01:24:12;;;;;;;133.75;60.88;;;20.90;86.00;;;;;;5001658;28;20409;-82
2021/06/29 01:26:44;;;;;;;142.45;58.10;;;21.00;86.10;;;;;;5001914;28;20179;-82
2021/06/29 01:29:10;;;;;;;129.27;56.78;;;21.00;86.00;;;;;;5017568;28;20175;-82
2021/06/29 01:31:37;;;;;;;114.40;56.53;;;21.00;85.70;;;;;;5000776;28;20278;-82
2021/06/29 01:34:05;;;;;;;124.47;54.60;;;21.10;85.60;;;;;;5001767;28;20517;-81
2021/06/29 01:36:38;;;;;;;117.50;55.60;;;21.10;85.50;;;;;;5000371;28;20623;-82
2021/06/29 01:39:07;;;;;;;137.63;58.67;;;21.10;85.50;;;;;;5004454;28;20650;-82
2021/06/29 01:41:33;;;;;;;115.15;55.63;;;21.10;85.50;;;;;;5003642;28;20294;-81
2021/06/29 01:44:04;;;;;;;121.50;56.80;;;21.00;85.40;;;;;;5003733;28;20597;-81
2021/06/29 01:46:33;;;;;;;127.88;59.58;;;20.90;84.60;;;;;;5007648;28;20162;-81
2021/06/29 01:48:59;;;;;;;132.48;56.42;;;20.90;84.50;;;;;;5007562;28;20187;-81
2021/06/29 01:51:25;;;;;;;126.55;56.05;;;20.90;84.70;;;;;;5005456;28;20195;-81
2021/06/29 01:53:52;;;;;;;136.93;60.25;;;20.90;84.50;;;;;;5004420;28;20187;-81
2021/06/29 01:56:26;;;;;;;154.98;64.00;;;20.80;84.60;;;;;;4988190;28;20202;-82
2021/06/29 01:59:03;;;;;;;151.77;65.25;;;20.80;84.90;;;;;;5004160;28;20171;-82
2021/06/29 02:01:29;;;;;;;155.23;63.40;;;20.80;85.30;;;;;;4987462;28;20201;-81
2021/06/29 02:03:55;;;;;;;143.47;58.93;;;20.80;85.40;;;;;;5006433;28;20167;-81
2021/06/29 02:06:20;;;;;;;151.60;58.90;;;20.80;85.60;;;;;;4987819;28;20183;-82
2021/06/29 02:08:46;;;;;;;151.17;62.70;;;20.90;85.70;;;;;;4987117;28;20229;-82
2021/06/29 02:11:12;;;;;;;158.93;61.03;;;20.90;85.70;;;;;;4986304;28;20199;-81
2021/06/29 02:13:38;;;;;;;159.63;60.73;;;21.10;85.30;;;;;;4986814;28;20642;-82
2021/06/29 02:16:04;;;;;;;149.95;62.60;;;21.10;84.80;;;;;;4987248;28;20472;-81
2021/06/29 02:18:31;;;;;;;174.50;68.13;;;21.00;84.50;;;;;;4986060;28;20197;-82
2021/06/29 02:20:57;;;;;;;157.98;64.43;;;21.00;84.30;;;;;;4987480;28;20191;-82
2021/06/29 02:23:23;;;;;;;160.00;63.70;;;21.10;84.30;;;;;;4987632;28;20230;-82
2021/06/29 02:25:50;;;;;;;168.70;66.18;;;21.00;84.30;;;;;;4987908;28;20179;-82
2021/06/29 02:28:15;;;;;;;153.75;60.35;;;21.00;84.60;;;;;;4987794;28;20214;-82
2021/06/29 02:30:41;;;;;;;159.40;65.07;;;21.00;84.60;;;;;;4986835;28;20182;-82
2021/06/29 02:33:08;;;;;;;149.47;57.17;;;21.00;84.60;;;;;;5005135;28;20229;-82
2021/06/29 02:35:34;;;;;;;153.85;58.75;;;21.00;84.60;;;;;;4987205;28;20410;-81
2021/06/29 02:38:00;;;;;;;164.52;60.05;;;21.00;84.40;;;;;;4987991;28;20183;-82
2021/06/29 02:40:26;;;;;;;165.83;60.73;;;21.10;84.30;;;;;;5004394;28;20507;-82
2021/06/29 02:42:52;;;;;;;157.27;57.90;;;21.10;84.10;;;;;;4993693;28;20195;-82
2021/06/29 02:45:19;;;;;;;150.03;54.10;;;21.10;84.10;;;;;;5005662;28;20481;-82
2021/06/29 02:47:46;;;;;;;140.13;55.20;;;21.10;84.20;;;;;;5005691;28;20187;-82
2021/06/29 02:50:13;;;;;;;138.80;55.80;;;21.10;84.20;;;;;;4999317;28;20499;-82
2021/06/29 02:52:40;;;;;;;130.20;54.63;;;21.10;84.10;;;;;;5003064;28;20465;-82
2021/06/29 02:55:08;;;;;;;145.45;55.35;;;21.10;84.10;;;;;;5004329;28;20501;-82
2021/06/29 02:57:34;;;;;;;136.97;50.47;;;21.20;84.10;;;;;;5002795;28;20214;-82
2021/06/29 03:00:00;;;;;;;140.00;51.90;;;21.10;84.00;;;;;;5002533;28;20501;-82
2021/06/29 03:02:26;;;;;;;157.50;54.20;;;21.10;83.90;;;;;;5017969;28;20454;-82
2021/06/29 03:04:51;;;;;;;158.37;53.17;;;21.10;84.00;;;;;;5002894;28;20577;-82
2021/06/29 03:07:17;;;;;;;169.00;52.30;;;21.00;83.80;;;;;;5002180;28;20214;-82
2021/06/29 03:09:43;;;;;;;161.33;53.00;;;20.90;84.00;;;;;;5001931;28;20977;-83
2021/06/29 03:12:09;;;;;;;187.87;55.60;;;20.90;84.10;;;;;;4999187;28;20968;-82
2021/06/29 03:14:36;;;;;;;193.88;60.00;;;20.80;84.10;;;;;;5001065;28;20275;-82
2021/06/29 03:17:03;;;;;;;179.35;58.78;;;21.00;83.80;;;;;;4997856;28;20209;-82
2021/06/29 03:19:33;;;;;;;173.05;54.03;;;20.90;83.50;;;;;;5000345;28;20257;-82
2021/06/29 03:22:00;;;;;;;185.85;56.80;;;20.80;83.80;;;;;;5004107;28;20194;-82
2021/06/29 03:24:27;;;;;;;178.10;55.00;;;20.80;84.00;;;;;;5002971;28;20266;-82
2021/06/29 03:26:54;;;;;;;171.38;56.05;;;20.70;84.00;;;;;;5000910;28;20187;-82
2021/06/29 03:29:20;;;;;;;187.75;56.05;;;20.60;84.00;;;;;;5001174;28;20171;-82
2021/06/29 03:31:46;;;;;;;172.07;52.67;;;20.60;84.20;;;;;;5000740;28;20298;-82
2021/06/29 03:34:12;;;;;;;163.00;53.00;;;20.50;84.40;;;;;;4998947;28;20626;-81
2021/06/29 03:36:38;;;;;;;173.50;52.25;;;20.50;84.50;;;;;;4999158;28;20505;-82
2021/06/29 03:39:06;;;;;;;151.63;49.80;;;20.40;84.40;;;;;;5004084;28;20180;-81
2021/06/29 03:41:33;;;;;;;163.50;53.10;;;20.50;84.70;;;;;;5002010;28;20302;-81
2021/06/29 03:43:59;;;;;;;178.77;52.13;;;20.40;84.70;;;;;;5002494;28;20190;-81
2021/06/29 03:46:25;;;;;;;153.07;51.42;;;20.50;85.00;;;;;;5003475;28;20175;-82
2021/06/29 03:48:51;;;;;;;164.27;51.53;;;20.40;85.10;;;;;;4999413;28;20282;-82
2021/06/29 03:51:16;;;;;;;161.20;57.20;;;20.40;85.30;;;;;;5002804;28;20438;-81
2021/06/29 03:53:42;;;;;;;150.30;51.00;;;20.30;84.60;;;;;;4985480;28;20208;-82
2021/06/29 03:59:08;;;;;;;142.25;49.35;;;20.60;84.20;;;;;;4986807;28;20191;-82
2021/06/29 04:01:35;;;;;;;137.02;50.67;;;20.60;83.30;;;;;;5000873;28;20755;-81
2021/06/29 04:04:01;;;;;;;160.73;50.45;;;20.60;83.30;;;;;;5003251;28;20168;-82
2021/06/29 04:06:30;;;;;;;156.60;54.00;;;20.70;82.50;;;;;;4985356;28;20241;-82
2021/06/29 04:08:57;;;;;;;161.43;52.28;;;20.80;82.60;;;;;;4986833;28;20722;-82
2021/06/29 04:11:24;;;;;;;154.50;49.13;;;20.90;82.00;;;;;;4987847;28;20199;-81
2021/06/29 04:13:50;;;;;;;149.40;49.83;;;20.90;82.00;;;;;;4988694;28;20240;-81
2021/06/29 04:16:17;;;;;;;165.15;53.30;;;20.90;81.90;;;;;;4988074;28;20241;-82
2021/06/29 04:18:43;;;;;;;158.13;51.03;;;20.80;82.30;;;;;;4986753;28;20175;-81
2021/06/29 04:21:09;;;;;;;154.60;51.20;;;20.90;82.70;;;;;;4986792;28;20286;-82
2021/06/29 04:23:35;;;;;;;165.50;52.63;;;20.90;82.20;;;;;;4987329;28;20243;-82
2021/06/29 04:26:01;;;;;;;145.55;50.30;;;21.10;81.60;;;;;;5002123;28;20901;-82
2021/06/29 04:28:27;;;;;;;161.60;50.88;;;21.00;81.40;;;;;;5001715;28;20249;-82
2021/06/29 04:30:53;;;;;;;161.57;50.03;;;21.00;81.60;;;;;;5003473;28;20199;-82
2021/06/29 04:33:19;;;;;;;161.87;51.10;;;20.90;81.80;;;;;;4992521;28;20422;-82
2021/06/29 04:35:44;;;;;;;157.90;53.20;;;20.90;81.50;;;;;;4985160;28;20198;-81
2021/06/29 04:38:10;;;;;;;159.03;53.50;;;20.90;82.00;;;;;;4984537;28;20976;-82
2021/06/29 04:40:36;;;;;;;159.20;51.90;;;21.00;81.90;;;;;;4984339;28;20179;-81
2021/06/29 04:43:02;;;;;;;159.83;50.67;;;20.90;81.80;;;;;;5000512;28;20654;-82
2021/06/29 04:45:28;;;;;;;152.98;51.50;;;20.60;82.60;;;;;;5001379;28;20194;-82
2021/06/29 04:47:55;;;;;;;156.55;49.38;;;20.70;83.70;;;;;;5000896;28;20266;-81
2021/06/29 04:50:22;;;;;;;148.65;47.22;;;20.60;83.80;;;;;;5002390;28;20199;-82
2021/06/29 04:52:49;;;;;;;172.07;52.60;;;20.80;84.40;;;;;;4985083;28;20345;-82
2021/06/29 04:55:15;;;;;;;145.82;48.90;;;21.00;82.10;;;;;;5001339;28;20274;-81
2021/06/29 04:57:42;;;;;;;136.52;46.72;;;20.90;82.10;;;;;;5001038;28;20213;-81
2021/06/29 05:00:11;;;;;;;148.27;49.30;;;20.80;82.70;;;;;;5001728;28;20195;-81
2021/06/29 05:02:38;;;;;;;117.72;46.28;;;20.70;83.20;;;;;;4999523;28;20218;-81
2021/06/29 05:05:05;;;;;;;105.78;45.30;;;20.80;83.50;;;;;;5000192;28;20175;-81
2021/06/29 05:07:31;;;;;;;108.72;43.63;;;20.70;83.60;;;;;;4983585;28;20576;-82
2021/06/29 05:09:57;;;;;;;97.67;40.27;;;20.80;83.50;;;;;;4983701;28;20258;-82
2021/06/29 05:12:22;;;;;;;111.13;45.00;;;20.70;83.40;;;;;;4982962;28;20434;-81
2021/06/29 05:14:48;;;;;;;104.30;42.43;;;20.80;83.60;;;;;;5002224;28;20179;-83
2021/06/29 05:17:14;;;;;;;100.97;41.67;;;20.70;83.90;;;;;;4984782;28;20994;-81
2021/06/29 05:19:40;;;;;;;98.63;43.57;;;20.70;84.00;;;;;;5001348;28;20183;-82
2021/06/29 05:22:06;;;;;;;86.73;42.53;;;20.70;84.10;;;;;;4983989;28;20438;-82
2021/06/29 05:24:32;;;;;;;93.30;41.75;;;20.70;84.10;;;;;;4984744;28;20670;-81
2021/06/29 05:26:58;;;;;;;87.03;41.70;;;20.70;84.20;;;;;;4984420;28;20202;-81
2021/06/29 05:29:23;;;;;;;89.30;41.00;;;20.80;84.10;;;;;;4983860;28;20298;-82
2021/06/29 05:31:49;;;;;;;101.43;42.40;;;20.70;84.10;;;;;;4983699;28;20203;-82
2021/06/29 05:34:15;;;;;;;99.57;43.33;;;20.80;84.10;;;;;;5000631;28;20179;-81
2021/06/29 05:36:42;;;;;;;98.57;45.70;;;20.80;84.10;;;;;;5001851;28;20218;-81
2021/06/29 05:39:08;;;;;;;97.15;43.95;;;20.80;84.00;;;;;;5000442;28;20197;-82
2021/06/29 05:41:34;;;;;;;96.55;41.60;;;21.10;83.10;;;;;;4998798;28;20191;-80
2021/06/29 05:44:01;;;;;;;104.80;43.87;;;21.00;82.70;;;;;;5000380;28;20186;-81
2021/06/29 05:46:27;;;;;;;94.30;42.03;;;21.00;82.90;;;;;;4981671;28;20178;-82
2021/06/29 05:48:52;;;;;;;66.20;34.77;;;21.10;82.70;;;;;;4980775;28;20186;-82
2021/06/29 05:51:19;;;;;;;58.20;27.07;;;21.10;82.10;;;;;;4978225;28;20199;-81
2021/06/29 05:53:46;;;;;;;53.97;27.05;;;21.10;81.50;;;;;;4996716;28;20175;-81
2021/06/29 05:56:12;;;;;;;43.77;23.83;;;21.10;81.00;;;;;;4982473;28;20207;-81
2021/06/29 05:58:38;;;;;;;46.87;23.67;;;21.20;80.70;;;;;;4985463;28;20434;-82
2021/06/29 06:01:08;;;;;;;43.30;19.80;;;21.30;80.70;;;;;;5002506;28;20480;-81
2021/06/29 06:03:34;;;;;;;37.70;17.90;;;21.50;79.50;;;;;;5003203;28;20426;-82
2021/06/29 06:05:59;;;;;;;36.07;17.97;;;21.70;76.40;;;;;;4986011;28;20225;-82
2021/06/29 06:08:25;;;;;;;36.47;16.70;;;21.60;76.40;;;;;;4985635;28;20476;-82
2021/06/29 06:10:53;;;;;;;33.33;18.10;;;21.50;77.30;;;;;;5001767;28;20207;-82
2021/06/29 06:13:19;;;;;;;25.77;15.60;;;21.50;77.80;;;;;;4983519;28;20187;-81
2021/06/29 06:15:45;;;;;;;26.30;13.57;;;21.40;77.70;;;;;;5001524;28;20487;-82
2021/06/29 06:18:11;;;;;;;26.83;13.40;;;21.50;77.80;;;;;;5000466;28;20249;-82
2021/06/29 06:20:37;;;;;;;26.30;12.50;;;21.60;76.80;;;;;;5001327;28;20997;-82
2021/06/29 06:23:04;;;;;;;27.40;13.60;;;21.60;76.50;;;;;;5007553;28;20480;-82
2021/06/29 06:25:31;;;;;;;21.00;11.53;;;21.70;76.60;;;;;;4990042;28;20418;-82
2021/06/29 06:27:57;;;;;;;17.20;9.27;;;21.70;76.20;;;;;;5007028;28;20411;-82
2021/06/29 06:30:23;;;;;;;17.13;9.87;;;21.80;76.00;;;;;;4988182;28;20443;-81
2021/06/29 06:32:48;;;;;;;13.80;9.13;;;21.80;75.80;;;;;;5006617;28;20218;-82
2021/06/29 06:35:14;;;;;;;25.27;8.90;;;21.90;75.10;;;;;;4989265;28;20414;-82
2021/06/29 06:37:40;;;;;;;18.80;10.00;;;21.90;75.10;;;;;;5007375;28;20290;-81
2021/06/29 06:40:07;;;;;;;18.27;9.63;;;21.90;75.00;;;;;;4992101;28;20425;-82
2021/06/29 06:42:33;;;;;;;16.40;8.97;;;22.00;74.90;;;;;;4992757;28;20192;-81
2021/06/29 06:44:59;;;;;;;16.33;8.17;;;22.30;73.40;;;;;;4993257;28;20414;-82
2021/06/29 06:47:25;;;;;;;14.53;8.77;;;22.30;72.20;;;;;;4993696;28;20537;-82
2021/06/29 06:49:51;;;;;;;14.63;8.70;;;22.40;71.50;;;;;;4994094;28;20426;-83
2021/06/29 06:52:17;;;;;;;12.17;7.37;;;22.50;72.50;;;;;;4994113;28;20195;-82
2021/06/29 06:54:43;;;;;;;16.20;9.47;;;22.50;73.00;;;;;;5010016;28;20413;-82
2021/06/29 06:57:09;;;;;;;18.40;9.63;;;22.70;72.20;;;;;;5005452;28;20538;-83
2021/06/29 06:59:36;;;;;;;20.63;10.10;;;22.90;71.20;;;;;;5004186;28;20203;-83
2021/06/29 07:02:02;;;;;;;13.53;7.73;;;22.90;71.20;;;;;;5003443;28;21016;-82
2021/06/29 07:04:27;;;;;;;14.93;8.30;;;22.90;71.10;;;;;;5005452;28;20414;-83
2021/06/29 07:06:53;;;;;;;9.90;6.63;;;23.20;70.90;;;;;;4987493;28;20431;-83
2021/06/29 07:09:20;;;;;;;12.33;6.33;;;23.30;70.40;;;;;;4986975;28;20613;-83
2021/06/29 07:11:46;;;;;;;19.63;12.10;;;23.60;69.80;;;;;;5004035;28;20510;-82
2021/06/29 07:14:11;;;;;;;23.90;13.80;;;23.90;68.80;;;;;;5003140;28;20442;-83
2021/06/29 07:16:37;;;;;;;20.03;11.27;;;24.20;67.60;;;;;;4988583;28;20199;-82
2021/06/29 07:19:03;;;;;;;18.50;11.77;;;24.50;66.60;;;;;;5008437;28;20554;-83
2021/06/29 07:21:30;;;;;;;19.93;10.60;;;24.90;65.60;;;;;;5003884;28;20440;-83
2021/06/29 07:23:56;;;;;;;16.80;10.47;;;25.40;63.60;;;;;;4986911;28;20433;-83
2021/06/29 07:26:22;;;;;;;16.23;11.20;;;25.90;61.40;;;;;;4983419;28;20429;-83
2021/06/29 07:28:48;;;;;;;14.40;10.77;;;26.20;60.10;;;;;;4985190;28;20450;-83
2021/06/29 07:31:17;;;;;;;11.50;9.47;;;26.50;59.10;;;;;;4967303;28;20450;-83
2021/06/29 07:33:47;;;;;;;15.03;10.00;;;26.70;58.60;;;;;;4967343;28;20207;-83
2021/06/29 07:36:15;;;;;;;12.90;9.60;;;26.60;57.50;;;;;;4966762;28;20470;-83
2021/06/29 07:38:41;;;;;;;10.03;8.70;;;26.60;56.30;;;;;;4984542;28;20518;-83
2021/06/29 07:41:07;;;;;;;12.60;7.50;;;26.70;56.60;;;;;;4984027;28;20435;-83
2021/06/29 07:43:32;;;;;;;13.00;8.43;;;26.40;56.20;;;;;;4967146;28;20416;-83
2021/06/29 07:45:58;;;;;;;15.30;7.33;;;26.40;56.40;;;;;;4984489;28;20251;-83
2021/06/29 07:48:24;;;;;;;11.80;6.27;;;26.40;57.30;;;;;;4967637;28;20190;-83
2021/06/29 07:50:49;;;;;;;10.37;6.87;;;26.20;58.50;;;;;;4983342;28;20543;-83
2021/06/29 07:53:15;;;;;;;18.67;7.70;;;26.10;58.60;;;;;;4966531;28;20185;-83
2021/06/29 07:55:41;;;;;;;8.33;7.10;;;26.10;58.60;;;;;;4984116;28;20188;-82
2021/06/29 07:58:07;;;;;;;10.60;6.67;;;25.80;58.40;;;;;;4982978;28;20629;-82
2021/06/29 08:00:36;;;;;;;12.17;8.73;;;25.90;59.10;;;;;;4982618;28;20430;-83
2021/06/29 08:03:03;;;;;;;12.13;6.50;;;25.90;59.10;;;;;;4984030;28;20435;-83
2021/06/29 08:05:30;;;;;;;8.03;6.20;;;25.80;59.40;;;;;;4968741;28;20416;-83
2021/06/29 08:07:55;;;;;;;11.93;4.77;;;25.90;59.30;;;;;;4984665;28;20411;-82
2021/06/29 08:10:21;;;;;;;10.63;7.77;;;26.10;60.10;;;;;;4966210;28;20437;-83
2021/06/29 08:12:47;;;;;;;12.73;8.27;;;26.10;59.50;;;;;;4983293;28;20232;-82
2021/06/29 08:15:15;;;;;;;7.30;6.50;;;26.20;58.90;;;;;;4984515;28;20906;-83
2021/06/29 08:17:41;;;;;;;9.77;6.77;;;26.40;58.00;;;;;;4985642;28;20456;-82
2021/06/29 08:20:08;;;;;;;8.80;5.60;;;26.50;56.80;;;;;;4968453;28;20441;-83
2021/06/29 08:22:34;;;;;;;9.60;6.23;;;26.30;56.60;;;;;;4986454;28;20553;-83
2021/06/29 08:25:00;;;;;;;8.20;5.53;;;26.40;56.60;;;;;;4973850;28;20434;-83
2021/06/29 08:27:26;;;;;;;12.77;5.83;;;26.60;57.10;;;;;;4974152;28;20194;-84
2021/06/29 08:29:53;;;;;;;5.50;5.00;;;26.70;56.00;;;;;;4990599;28;20426;-83
2021/06/29 08:32:19;;;;;;;6.63;5.77;;;26.80;55.60;;;;;;4989392;28;20223;-83
2021/06/29 08:34:45;;;;;;;8.63;7.00;;;26.90;55.50;;;;;;4973945;28;20407;-83
2021/06/29 08:37:11;;;;;;;12.60;6.90;;;26.70;55.90;;;;;;4974344;28;20481;-83
2021/06/29 08:39:36;;;;;;;11.20;9.47;;;26.60;56.80;;;;;;4993109;28;20545;-84
2021/06/29 08:42:02;;;;;;;8.77;7.50;;;26.30;57.50;;;;;;4986504;28;20210;-84
2021/06/29 08:44:28;;;;;;;9.47;8.40;;;26.60;57.60;;;;;;4986293;28;20210;-84
2021/06/29 08:46:54;;;;;;;10.33;7.20;;;26.40;57.40;;;;;;4968555;28;20901;-84
2021/06/29 08:49:20;;;;;;;11.00;7.60;;;26.50;57.00;;;;;;4984633;28;20433;-83
2021/06/29 08:51:47;;;;;;;13.60;9.63;;;26.40;57.80;;;;;;4985222;28;20196;-84
2021/06/29 08:54:15;;;;;;;19.43;10.33;;;26.30;57.70;;;;;;4966726;28;20193;-84
2021/06/29 08:56:41;;;;;;;11.03;8.50;;;26.20;58.20;;;;;;4967129;28;20826;-84
2021/06/29 08:59:06;;;;;;;9.93;8.13;;;26.50;57.30;;;;;;4984385;28;20509;-84
2021/06/29 09:01:32;;;;;;;13.87;8.27;;;26.70;57.80;;;;;;4984288;28;20195;-84
2021/06/29 09:03:58;;;;;;;9.87;7.83;;;26.90;55.40;;;;;;4983202;28;20191;-84
2021/06/29 09:06:30;;;;;;;13.53;9.20;;;27.20;56.20;;;;;;4983317;28;20286;-83
2021/06/29 09:08:56;;;;;;;13.80;8.93;;;27.20;56.00;;;;;;4988298;28;20188;-84
2021/06/29 09:11:22;;;;;;;12.43;10.00;;;27.20;55.70;;;;;;4968219;28;20450;-83
2021/06/29 09:14:11;;;;;;;15.77;11.77;;;27.30;55.40;;;;;;4968995;28;20192;-83
2021/06/29 09:16:37;;;;;;;14.40;12.23;;;27.20;55.50;;;;;;4985030;28;20195;-83
2021/06/29 09:19:03;;;;;;;15.70;10.30;;;27.40;55.20;;;;;;4968460;28;20442;-83
2021/06/29 09:21:36;;;;;;;17.33;9.80;;;27.50;54.20;;;;;;4987019;28;20442;-84
2021/06/29 09:24:04;;;;;;;16.33;11.30;;;27.80;53.20;;;;;;4991121;28;20414;-84
2021/06/29 09:26:30;;;;;;;16.43;10.37;;;27.70;53.80;;;;;;5000188;28;20423;-83
2021/06/29 09:29:01;;;;;;;16.70;10.77;;;27.80;53.50;;;;;;4987592;28;20437;-84
2021/06/29 09:31:32;;;;;;;18.47;10.13;;;27.90;52.40;;;;;;4987168;28;20234;-84
2021/06/29 09:34:18;;;;;;;22.30;13.23;;;27.80;53.00;;;;;;4987885;28;20489;-84
2021/06/29 09:36:44;;;;;;;15.50;12.30;;;27.90;53.10;;;;;;4982349;28;20466;-83
2021/06/29 09:39:13;;;;;;;26.40;13.57;;;27.70;53.30;;;;;;4982347;28;20422;-85
2021/06/29 09:41:41;;;;;;;22.43;14.47;;;27.90;53.00;;;;;;4970371;28;20211;-84
2021/06/29 09:44:13;;;;;;;23.13;16.77;;;27.90;51.90;;;;;;4970391;28;20510;-84
2021/06/29 09:46:41;;;;;;;41.47;28.23;;;28.10;52.10;;;;;;4983346;28;20427;-84
2021/06/29 09:49:12;;;;;;;29.43;20.63;;;28.10;52.20;;;;;;4958846;28;20496;-84
2021/06/29 09:51:39;;;;;;;25.67;17.70;;;27.50;52.70;;;;;;4947275;29;20511;-84
2021/06/29 09:54:07;;;;;;;29.73;16.67;;;27.30;54.70;;;;;;4961905;29;20566;-84
2021/06/29 09:56:39;;;;;;;28.23;16.70;;;26.90;54.30;;;;;;4962134;29;21022;-83
2021/06/29 09:59:17;;;;;;;25.27;15.37;;;26.80;55.40;;;;;;4948228;29;20456;-82
2021/06/29 10:01:44;;;;;;;23.03;15.17;;;26.90;55.70;;;;;;4964312;28;20873;-83
2021/06/29 10:04:10;;;;;;;29.90;17.20;;;27.10;55.50;;;;;;4958598;28;20419;-82
2021/06/29 10:06:38;;;;;;;27.50;15.63;;;27.00;55.50;;;;;;4974043;28;20432;-83
2021/06/29 10:09:10;;;;;;;26.70;17.17;;;26.90;55.10;;;;;;5021184;28;20425;-83
2021/06/29 10:11:40;;;;;;;30.80;19.67;;;26.60;55.70;;;;;;5019980;28;20475;-83
2021/06/29 10:14:14;;;;;;;24.63;16.83;;;26.50;55.50;;;;;;5004154;28;20420;-83
2021/06/29 10:16:44;;;;;;;18.53;14.57;;;26.40;55.70;;;;;;5004182;28;20461;-83
2021/06/29 10:19:33;;;;;;;24.57;14.03;;;26.30;56.50;;;;;;5002746;28;20431;-85
2021/06/29 10:22:07;;;;;;;22.73;14.57;;;26.50;56.60;;;;;;5004003;28;20437;-84
2021/06/29 10:24:36;;;;;;;23.20;14.27;;;26.80;54.80;;;;;;5003755;28;20417;-85
2021/06/29 10:27:06;;;;;;;21.73;13.47;;;27.20;53.50;;;;;;5002709;28;20472;-84
2021/06/29 10:29:32;;;;;;;32.07;14.30;;;27.60;52.90;;;;;;5003282;28;20525;-84
2021/06/29 10:32:06;;;;;;;22.13;13.30;;;27.90;52.10;;;;;;5024794;28;20446;-85
2021/06/29 10:34:36;;;;;;;22.90;15.10;;;28.10;52.10;;;;;;5005924;28;20979;-85
2021/06/29 10:37:04;;;;;;;18.90;12.97;;;28.20;50.90;;;;;;5009290;28;20446;-85
2021/06/29 10:39:31;;;;;;;28.07;13.90;;;28.40;51.70;;;;;;5010573;28;20402;-85
2021/06/29 10:42:12;;;;;;;28.27;16.70;;;28.50;51.60;;;;;;5009426;28;20420;-84
2021/06/29 10:44:51;;;;;;;30.07;21.10;;;28.30;50.50;;;;;;5024024;28;20422;-84
2021/06/29 10:47:22;;;;;;;32.47;15.90;;;28.30;51.70;;;;;;5011129;28;20412;-84
2021/06/29 10:49:50;;;;;;;24.60;16.23;;;28.20;50.70;;;;;;4994446;28;20918;-85
2021/06/29 10:52:28;;;;;;;27.60;17.87;;;28.20;50.90;;;;;;4988122;28;20528;-85
2021/06/29 10:54:56;;;;;;;32.13;17.53;;;28.30;51.10;;;;;;4986716;28;20426;-85
2021/06/29 10:57:41;;;;;;;23.80;16.93;;;28.30;51.20;;;;;;4988275;28;20436;-85
2021/06/29 11:00:16;;;;;;;25.20;16.93;;;28.40;51.60;;;;;;4992607;28;20408;-85
2021/06/29 11:02:57;;;;;;;37.30;23.97;;;28.60;51.60;;;;;;4990731;28;20850;-84
2021/06/29 11:05:29;;;;;;;47.47;28.10;;;28.50;51.40;;;;;;5001454;28;20385;-85
2021/06/29 11:08:14;;;;;;;46.50;27.20;;;27.80;50.90;;;;;;4998501;28;20449;-85
2021/06/29 11:10:47;;;;;;;40.40;24.27;;;27.70;52.40;;;;;;5004921;28;20447;-86
2021/06/29 11:13:14;;;;;;;47.23;27.73;;;27.90;52.60;;;;;;5004694;28;20449;-85
2021/06/29 11:15:51;;;;;;;71.63;33.30;;;27.30;53.90;;;;;;5008400;28;20422;-85
2021/06/29 11:18:20;;;;;;;80.37;40.30;;;27.10;54.90;;;;;;5026679;28;20405;-85
2021/06/29 11:20:53;;;;;;;84.57;40.20;;;26.60;55.60;;;;;;5025600;28;20401;-85
2021/06/29 11:23:30;;;;;;;77.23;40.40;;;26.50;56.50;;;;;;5008676;28;20421;-85
2021/06/29 11:26:00;;;;;;;99.57;43.60;;;26.30;57.00;;;;;;5008382;28;20509;-85
2021/06/29 11:28:37;;;;;;;87.17;39.97;;;26.10;57.00;;;;;;5008474;28;20425;-85
2021/06/29 11:31:33;;;;;;;84.23;40.60;;;26.10;56.60;;;;;;5024811;28;20495;-85
2021/06/29 11:33:59;;;;;;;97.50;41.17;;;25.90;57.40;;;;;;5006590;28;20419;-84
2021/06/29 11:36:25;;;;;;;87.30;38.40;;;25.80;58.00;;;;;;5006857;28;20465;-84
2021/06/29 11:39:20;;;;;;;85.80;38.63;;;25.70;58.50;;;;;;5006661;28;20850;-85
2021/06/29 11:41:55;;;;;;;82.80;36.60;;;25.40;58.40;;;;;;5004944;28;20457;-85
2021/06/29 11:44:20;;;;;;;84.03;38.30;;;25.30;59.60;;;;;;5023858;28;20420;-86
2021/06/29 11:47:05;;;;;;;71.87;35.37;;;25.20;60.10;;;;;;5006629;28;20432;-85
2021/06/29 11:49:31;;;;;;;84.77;37.07;;;25.20;58.50;;;;;;5003187;28;20267;-84
2021/06/29 11:51:59;;;;;;;77.40;34.00;;;25.10;60.10;;;;;;5009041;28;20518;-84
2021/06/29 11:54:38;;;;;;;64.00;33.00;;;25.10;61.20;;;;;;5004465;28;20183;-84
2021/06/29 11:57:14;;;;;;;59.30;31.80;;;25.00;62.30;;;;;;5004951;28;20473;-84
2021/06/29 11:59:41;;;;;;;61.30;30.57;;;24.90;62.50;;;;;;5003393;28;20858;-84
2021/06/29 12:02:10;;;;;;;59.40;30.43;;;24.90;62.70;;;;;;5003341;28;20533;-84
2021/06/29 12:04:36;;;;;;;49.97;27.33;;;24.90;62.20;;;;;;4998063;28;20422;-85
2021/06/29 12:07:04;;;;;;;46.10;25.20;;;25.10;61.60;;;;;;4985853;28;20431;-84
2021/06/29 12:09:35;;;;;;;49.37;25.87;;;25.40;60.20;;;;;;4986186;28;20426;-84
2021/06/29 12:12:24;;;;;;;51.80;25.83;;;25.40;60.50;;;;;;5002658;28;20441;-84
2021/06/29 12:15:15;;;;;;;35.70;22.83;;;25.40;58.90;;;;;;5002517;28;20425;-84
2021/06/29 12:17:50;;;;;;;35.30;24.40;;;25.40;59.80;;;;;;4986264;28;20549;-85
2021/06/29 12:20:18;;;;;;;36.10;22.73;;;25.20;61.10;;;;;;4985300;28;20410;-87
2021/06/29 12:22:45;;;;;;;35.90;21.60;;;25.10;61.00;;;;;;4985396;28;20445;-85
2021/06/29 12:25:20;;;;;;;31.83;21.80;;;25.10;59.80;;;;;;4985754;28;20477;-85
2021/06/29 12:27:52;;;;;;;30.80;21.67;;;25.10;60.70;;;;;;4985494;28;20421;-84
2021/06/29 12:30:31;;;;;;;33.90;20.50;;;25.00;61.70;;;;;;4984708;28;20426;-85
2021/06/29 12:32:57;;;;;;;31.00;21.07;;;25.00;62.40;;;;;;5002902;28;20464;-84